createdAt,value
2022-08-17T00:00:43.800Z,56.88
2022-08-17T00:01:19.300Z,38.03
2022-08-17T00:02:48.492Z,38.99
2022-08-17T00:03:47.355Z,47.53
2022-08-17T00:05:29.539Z,40.12
2022-08-17T00:06:54.331Z,40.77
2022-08-17T00:07:30.483Z,39.16
2022-08-17T00:08:30.484Z,37.38
2022-08-17T00:09:30.446Z,52.69
2022-08-17T00:10:32.418Z,38.67
2022-08-17T00:11:30.441Z,42.54
2022-08-17T00:12:42.317Z,40.61
2022-08-17T00:13:30.402Z,39.64
2022-08-17T00:14:30.411Z,37.71
2022-08-17T00:15:30.421Z,37.71
2022-08-17T00:16:55.360Z,43.34
2022-08-17T00:17:30.397Z,40.12
2022-08-17T00:18:53.910Z,41.09
2022-08-17T00:19:30.354Z,40.12
2022-08-17T00:20:33.559Z,38.03
2022-08-17T00:21:56.337Z,40.61
2022-08-17T00:22:40.120Z,43.18
2022-08-17T00:23:30.313Z,44.79
2022-08-17T00:24:30.302Z,42.86
2022-08-17T00:25:30.309Z,41.09
2022-08-17T00:26:43.686Z,41.09
2022-08-17T00:27:30.314Z,42.54
2022-08-17T00:28:31.070Z,42.70
2022-08-17T00:29:30.280Z,43.02
2022-08-17T00:30:30.227Z,39.32
2022-08-17T00:31:30.234Z,44.47
2022-08-17T00:33:23.147Z,40.44
2022-08-17T00:33:30.801Z,39.96
2022-08-17T00:34:30.308Z,44.63
2022-08-17T00:35:30.204Z,42.06
2022-08-17T00:36:30.167Z,38.99
2022-08-17T00:37:30.174Z,37.38
2022-08-17T00:38:30.408Z,38.99
2022-08-17T00:39:30.208Z,43.83
2022-08-17T00:40:40.846Z,52.05
2022-08-17T00:41:30.973Z,39.32
2022-08-17T00:42:31.226Z,39.64
2022-08-17T00:43:30.115Z,38.99
2022-08-17T00:44:30.302Z,36.74
2022-08-17T00:45:30.129Z,38.67
2022-08-17T00:46:30.064Z,38.51
2022-08-17T00:47:30.068Z,41.25
2022-08-17T00:48:30.865Z,43.18
2022-08-17T00:49:30.054Z,44.79
2022-08-17T00:50:30.022Z,38.67
2022-08-17T00:51:30.045Z,43.02
2022-08-17T00:52:30.024Z,50.60
2022-08-17T00:53:36.129Z,37.87
2022-08-17T00:54:30.001Z,43.51
2022-08-17T00:55:29.996Z,38.51
2022-08-17T00:56:30.034Z,39.80
2022-08-17T00:57:29.971Z,37.06
2022-08-17T00:58:35.810Z,37.38
2022-08-17T00:59:29.974Z,40.93
2022-08-17T01:00:29.927Z,37.06
2022-08-17T01:01:29.947Z,56.88
2022-08-17T01:02:29.885Z,37.06
2022-08-17T01:03:29.928Z,36.09
2022-08-17T01:04:29.906Z,52.69
2022-08-17T01:05:29.859Z,42.06
2022-08-17T01:06:30.046Z,39.64
2022-08-17T01:07:29.880Z,47.70
2022-08-17T01:08:29.838Z,42.86
2022-08-17T01:09:29.868Z,43.18
2022-08-17T01:10:59.222Z,36.58
2022-08-17T01:11:29.831Z,36.90
2022-08-17T01:12:29.784Z,38.35
2022-08-17T01:13:29.795Z,38.83
2022-08-17T01:14:29.796Z,37.06
2022-08-17T01:15:29.780Z,39.16
2022-08-17T01:16:29.754Z,36.90
2022-08-17T01:17:57.306Z,37.06
2022-08-17T01:18:29.769Z,37.71
2022-08-17T01:19:29.729Z,37.54
2022-08-17T01:20:29.848Z,36.90
2022-08-17T01:21:29.713Z,37.38
2022-08-17T01:22:29.788Z,38.35
2022-08-17T01:23:29.689Z,40.61
2022-08-17T01:24:30.130Z,39.48
2022-08-17T01:25:29.731Z,37.87
2022-08-17T01:26:29.775Z,37.38
2022-08-17T01:27:29.683Z,41.41
2022-08-17T01:28:53.191Z,43.34
2022-08-17T01:29:29.687Z,40.61
2022-08-17T01:30:57.365Z,39.32
2022-08-17T01:31:29.970Z,38.19
2022-08-17T01:32:29.888Z,37.71
2022-08-17T01:33:29.689Z,46.73
2022-08-17T01:34:42.814Z,39.48
2022-08-17T01:35:29.584Z,39.64
2022-08-17T01:36:29.595Z,37.54
2022-08-17T01:37:29.549Z,40.61
2022-08-17T01:38:29.564Z,36.90
2022-08-17T01:39:29.692Z,42.86
2022-08-17T01:40:29.565Z,45.44
2022-08-17T01:41:29.534Z,38.83
2022-08-17T01:42:29.486Z,46.08
2022-08-17T01:43:29.474Z,38.99
2022-08-17T01:44:29.468Z,38.67
2022-08-17T01:45:29.478Z,39.80
2022-08-17T01:46:29.453Z,42.22
2022-08-17T01:47:29.898Z,46.89
2022-08-17T01:48:29.466Z,38.99
2022-08-17T01:49:29.434Z,40.93
2022-08-17T01:50:29.400Z,41.89
2022-08-17T01:51:29.384Z,47.21
2022-08-17T01:52:29.449Z,41.09
2022-08-17T01:53:29.350Z,40.93
2022-08-17T01:54:29.402Z,43.34
2022-08-17T01:55:29.339Z,42.54
2022-08-17T01:56:29.393Z,40.93
2022-08-17T01:57:29.321Z,48.50
2022-08-17T01:58:29.336Z,41.89
2022-08-17T01:59:29.293Z,38.67
2022-08-17T02:00:59.370Z,39.96
2022-08-17T02:01:29.320Z,39.64
2022-08-17T02:02:30.975Z,40.61
2022-08-17T02:03:29.258Z,43.34
2022-08-17T02:04:29.293Z,42.86
2022-08-17T02:05:29.235Z,38.83
2022-08-17T02:06:29.240Z,37.38
2022-08-17T02:07:29.220Z,38.19
2022-08-17T02:08:37.002Z,55.43
2022-08-17T02:09:29.760Z,45.28
2022-08-17T02:10:33.713Z,37.87
2022-08-17T02:11:29.175Z,38.03
2022-08-17T02:12:39.105Z,45.44
2022-08-17T02:13:29.147Z,41.41
2022-08-17T02:14:29.155Z,42.38
2022-08-17T02:15:29.142Z,47.05
2022-08-17T02:16:29.133Z,38.83
2022-08-17T02:17:29.113Z,47.21
2022-08-17T02:18:29.727Z,49.79
2022-08-17T02:19:30.747Z,43.18
2022-08-17T02:20:41.366Z,53.17
2022-08-17T02:21:30.216Z,38.83
2022-08-17T02:22:31.364Z,40.44
2022-08-17T02:23:30.662Z,41.57
2022-08-17T02:25:00.651Z,41.57
2022-08-17T02:25:29.055Z,48.98
2022-08-17T02:26:29.745Z,41.25
2022-08-17T02:27:29.038Z,40.28
2022-08-17T02:28:29.012Z,41.73
2022-08-17T02:29:29.764Z,41.09
2022-08-17T02:31:00.007Z,56.40
2022-08-17T02:31:29.061Z,46.73
2022-08-17T02:32:29.731Z,40.12
2022-08-17T02:33:37.205Z,44.31
2022-08-17T02:34:28.945Z,43.67
2022-08-17T02:35:29.076Z,38.03
2022-08-17T02:36:29.009Z,45.76
2022-08-17T02:37:28.914Z,44.31
2022-08-17T02:39:27.940Z,40.61
2022-08-17T02:40:35.966Z,42.22
2022-08-17T02:41:31.990Z,42.38
2022-08-17T02:42:28.187Z,45.92
2022-08-17T02:43:26.090Z,45.76
2022-08-17T02:44:39.632Z,52.21
2022-08-17T02:45:26.349Z,42.38
2022-08-17T02:46:25.382Z,42.86
2022-08-17T02:47:25.387Z,38.99
2022-08-17T02:48:31.172Z,40.93
2022-08-17T02:49:25.450Z,42.86
2022-08-17T02:50:25.452Z,42.38
2022-08-17T02:51:25.336Z,42.22
2022-08-17T02:52:43.038Z,43.83
2022-08-17T02:53:25.767Z,47.05
2022-08-17T02:54:40.030Z,51.08
2022-08-17T02:55:25.382Z,37.54
2022-08-17T02:56:25.277Z,39.64
2022-08-17T02:57:25.355Z,41.73
2022-08-17T02:58:34.549Z,43.67
2022-08-17T02:59:25.668Z,41.57
2022-08-17T03:00:25.253Z,54.14
2022-08-17T03:01:25.338Z,40.12
2022-08-17T03:02:25.223Z,37.87
2022-08-17T03:03:25.215Z,38.03
2022-08-17T03:04:25.228Z,37.71
2022-08-17T03:05:25.199Z,39.80
2022-08-17T03:06:25.201Z,39.48
2022-08-17T03:07:25.182Z,56.40
2022-08-17T03:08:25.152Z,39.16
2022-08-17T03:09:25.157Z,38.51
2022-08-17T03:10:25.136Z,38.83
2022-08-17T03:11:25.162Z,42.86
2022-08-17T03:12:25.156Z,44.79
2022-08-17T03:13:25.119Z,50.27
2022-08-17T03:14:26.183Z,47.05
2022-08-17T03:15:25.101Z,47.53
2022-08-17T03:16:25.070Z,39.64
2022-08-17T03:17:25.132Z,48.02
2022-08-17T03:18:26.249Z,43.34
2022-08-17T03:19:25.060Z,39.48
2022-08-17T03:20:25.035Z,40.77
2022-08-17T03:21:25.022Z,59.78
2022-08-17T03:22:37.176Z,42.86
2022-08-17T03:23:25.560Z,48.50
2022-08-17T03:24:28.630Z,42.38
2022-08-17T03:25:24.993Z,45.44
2022-08-17T03:26:24.974Z,55.27
2022-08-17T03:27:24.974Z,46.41
2022-08-17T03:28:24.978Z,43.51
2022-08-17T03:29:24.962Z,46.41
2022-08-17T03:30:24.996Z,51.08
2022-08-17T03:31:24.914Z,48.34
2022-08-17T03:32:24.918Z,41.57
2022-08-17T03:33:25.023Z,49.47
2022-08-17T03:34:25.058Z,41.89
2022-08-17T03:35:32.985Z,47.37
2022-08-17T03:36:24.874Z,40.93
2022-08-17T03:37:25.000Z,41.41
2022-08-17T03:39:18.244Z,46.73
2022-08-17T03:40:55.286Z,45.60
2022-08-17T03:41:19.231Z,45.60
2022-08-17T03:42:32.095Z,54.95
2022-08-17T03:43:19.243Z,41.41
2022-08-17T03:44:19.870Z,50.27
2022-08-17T03:45:19.150Z,45.44
2022-08-17T03:46:28.100Z,60.91
2022-08-17T03:47:19.783Z,53.01
2022-08-17T03:48:19.177Z,57.04
2022-08-17T03:49:19.088Z,43.02
2022-08-17T03:50:19.104Z,40.12
2022-08-17T03:51:19.068Z,53.66
2022-08-17T03:52:19.129Z,54.62
2022-08-17T03:53:19.252Z,54.62
2022-08-17T03:54:19.058Z,47.70
2022-08-17T03:55:19.071Z,42.54
2022-08-17T03:56:55.403Z,42.86
2022-08-17T03:57:23.575Z,41.73
2022-08-17T04:00:21.376Z,52.53
2022-08-17T04:00:26.318Z,42.86
2022-08-17T04:02:39.736Z,45.60
2022-08-17T04:03:40.553Z,51.88
2022-08-17T04:05:15.244Z,49.95
2022-08-17T04:05:40.506Z,57.04
2022-08-17T04:06:40.488Z,55.91
2022-08-17T04:07:42.201Z,43.67
2022-08-17T04:08:40.450Z,47.21
2022-08-17T04:10:12.605Z,47.70
2022-08-17T04:10:44.828Z,48.02
2022-08-17T04:11:40.539Z,53.66
2022-08-17T04:12:42.139Z,54.79
2022-08-17T04:13:42.321Z,45.28
2022-08-17T04:14:53.147Z,51.56
2022-08-17T04:15:40.418Z,43.02
2022-08-17T04:16:40.384Z,45.60
2022-08-17T04:17:41.347Z,54.14
2022-08-17T04:18:40.370Z,58.33
2022-08-17T04:19:40.388Z,50.60
2022-08-17T04:20:40.903Z,47.21
2022-08-17T04:21:40.333Z,49.15
2022-08-17T04:22:40.330Z,52.53
2022-08-17T04:23:46.404Z,53.82
2022-08-17T04:24:40.331Z,54.14
2022-08-17T04:25:57.355Z,48.98
2022-08-17T04:27:33.427Z,49.63
2022-08-17T04:28:34.110Z,53.01
2022-08-17T04:29:54.351Z,55.11
2022-08-17T04:31:45.789Z,56.72
2022-08-17T04:33:00.497Z,57.36
2022-08-17T04:34:55.937Z,55.59
2022-08-17T04:35:57.009Z,52.85
2022-08-17T04:37:03.378Z,48.98
2022-08-17T04:38:06.218Z,58.97
2022-08-17T04:40:07.307Z,60.59
2022-08-17T04:41:08.316Z,62.20
2022-08-17T04:42:59.997Z,60.91
2022-08-17T04:43:59.619Z,58.49
2022-08-17T04:45:08.925Z,59.14
2022-08-17T04:45:59.600Z,56.24
2022-08-17T04:47:05.701Z,66.06
2022-08-17T04:49:12.982Z,57.36
2022-08-17T04:50:14.918Z,53.98
2022-08-17T04:51:13.539Z,57.36
2022-08-17T04:52:32.343Z,54.14
2022-08-17T04:53:13.640Z,49.63
2022-08-17T04:54:13.628Z,52.21
2022-08-17T04:55:15.160Z,62.52
2022-08-17T04:57:29.243Z,51.72
2022-08-17T05:00:45.058Z,49.31
2022-08-17T05:01:46.043Z,46.57
2022-08-17T05:02:50.175Z,51.88
2022-08-17T05:04:38.040Z,50.92
2022-08-17T05:05:39.030Z,50.60
2022-08-17T05:06:39.051Z,53.50
2022-08-17T05:08:44.913Z,48.50
2022-08-17T05:10:56.334Z,53.50
2022-08-17T05:11:57.503Z,54.46
2022-08-17T05:13:55.910Z,53.33
2022-08-17T05:15:03.006Z,57.04
2022-08-17T05:15:56.940Z,46.41
2022-08-17T05:17:09.427Z,59.62
2022-08-17T05:17:56.862Z,58.97
2022-08-17T05:18:56.846Z,54.95
2022-08-17T05:20:03.168Z,51.88
2022-08-17T05:20:56.842Z,56.88
2022-08-17T05:21:56.954Z,59.46
2022-08-17T05:22:56.795Z,54.14
2022-08-17T05:23:56.792Z,52.53
2022-08-17T05:24:56.916Z,49.63
2022-08-17T05:26:06.285Z,50.43
2022-08-17T05:26:57.509Z,51.56
2022-08-17T05:27:56.751Z,53.01
2022-08-17T05:28:59.419Z,47.70
2022-08-17T05:29:56.821Z,60.10
2022-08-17T05:30:56.725Z,54.14
2022-08-17T05:31:56.722Z,50.76
2022-08-17T05:32:57.047Z,50.27
2022-08-17T05:34:02.804Z,56.24
2022-08-17T05:34:56.703Z,52.85
2022-08-17T05:35:56.683Z,60.59
2022-08-17T05:36:56.669Z,60.59
2022-08-17T05:37:56.686Z,59.62
2022-08-17T05:38:56.640Z,58.01
2022-08-17T05:39:56.994Z,57.85
2022-08-17T05:41:02.754Z,47.86
2022-08-17T05:41:56.619Z,53.82
2022-08-17T05:42:56.665Z,58.65
2022-08-17T05:43:56.827Z,49.63
2022-08-17T05:44:56.603Z,46.08
2022-08-17T05:45:56.718Z,53.17
2022-08-17T05:46:56.715Z,68.48
2022-08-17T05:48:03.665Z,71.87
2022-08-17T05:48:56.565Z,59.14
2022-08-17T05:49:56.545Z,53.50
2022-08-17T05:51:08.173Z,56.88
2022-08-17T05:52:47.023Z,58.33
2022-08-17T05:53:47.956Z,55.27
2022-08-17T05:54:47.965Z,56.56
2022-08-17T05:55:47.990Z,50.43
2022-08-17T05:56:47.880Z,58.97
2022-08-17T05:57:54.148Z,50.60
2022-08-17T05:58:48.615Z,52.69
2022-08-17T05:59:53.958Z,57.85
2022-08-17T06:00:47.985Z,47.21
2022-08-17T06:01:47.839Z,63.81
2022-08-17T06:02:48.187Z,54.79
2022-08-17T06:03:47.813Z,54.79
2022-08-17T06:04:47.840Z,55.59
2022-08-17T06:05:59.423Z,55.75
2022-08-17T06:07:39.216Z,51.72
2022-08-17T06:08:40.205Z,46.73
2022-08-17T06:09:40.163Z,56.40
2022-08-17T06:10:40.298Z,47.86
2022-08-17T06:11:40.169Z,53.50
2022-08-17T06:12:40.137Z,58.81
2022-08-17T06:13:40.136Z,51.40
2022-08-17T06:14:40.128Z,44.31
2022-08-17T06:15:40.138Z,51.08
2022-08-17T06:16:40.173Z,57.85
2022-08-17T06:17:40.088Z,51.56
2022-08-17T06:18:40.057Z,53.17
2022-08-17T06:19:40.106Z,60.42
2022-08-17T06:20:40.036Z,53.17
2022-08-17T06:21:41.056Z,58.33
2022-08-17T06:22:40.063Z,50.11
2022-08-17T06:23:40.039Z,53.82
2022-08-17T06:24:40.049Z,53.01
2022-08-17T06:25:40.021Z,54.14
2022-08-17T06:26:43.287Z,60.10
2022-08-17T06:27:39.976Z,52.37
2022-08-17T06:28:40.306Z,55.75
2022-08-17T06:29:39.985Z,50.43
2022-08-17T06:30:58.539Z,59.78
2022-08-17T06:31:40.328Z,60.91
2022-08-17T06:32:41.352Z,54.79
2022-08-17T06:33:39.910Z,54.62
2022-08-17T06:34:39.899Z,68.96
2022-08-17T06:35:39.991Z,58.97
2022-08-17T06:36:39.932Z,58.81
2022-08-17T06:37:39.894Z,52.21
2022-08-17T06:38:39.852Z,55.59
2022-08-17T06:39:39.911Z,50.43
2022-08-17T06:40:39.846Z,54.79
2022-08-17T06:41:39.846Z,55.11
2022-08-17T06:42:55.077Z,60.91
2022-08-17T06:43:39.822Z,55.59
2022-08-17T06:44:42.243Z,55.91
2022-08-17T06:45:39.793Z,60.42
2022-08-17T06:46:39.786Z,52.05
2022-08-17T06:47:39.784Z,49.79
2022-08-17T06:48:39.820Z,56.72
2022-08-17T06:49:39.748Z,53.01
2022-08-17T06:50:39.748Z,53.17
2022-08-17T06:51:39.761Z,59.30
2022-08-17T06:52:45.812Z,51.56
2022-08-17T06:53:39.796Z,53.82
2022-08-17T06:54:39.710Z,56.56
2022-08-17T06:55:39.682Z,46.08
2022-08-17T06:56:53.104Z,52.37
2022-08-17T06:57:42.277Z,58.97
2022-08-17T06:58:40.708Z,53.66
2022-08-17T06:59:55.244Z,56.40
2022-08-17T07:00:39.649Z,50.43
2022-08-17T07:01:39.705Z,53.17
2022-08-17T07:02:53.231Z,58.17
2022-08-17T07:03:39.598Z,45.44
2022-08-17T07:04:39.576Z,55.59
2022-08-17T07:05:39.765Z,54.95
2022-08-17T07:06:39.577Z,53.82
2022-08-17T07:07:39.565Z,59.30
2022-08-17T07:08:39.528Z,57.20
2022-08-17T07:09:40.683Z,59.78
2022-08-17T07:10:39.526Z,56.40
2022-08-17T07:11:39.558Z,53.66
2022-08-17T07:12:39.501Z,55.75
2022-08-17T07:13:39.491Z,51.08
2022-08-17T07:14:39.477Z,56.40
2022-08-17T07:15:39.479Z,55.75
2022-08-17T07:16:39.465Z,53.66
2022-08-17T07:17:47.184Z,51.88
2022-08-17T07:18:39.429Z,55.91
2022-08-17T07:19:39.667Z,63.81
2022-08-17T07:20:45.830Z,50.92
2022-08-17T07:21:39.421Z,49.79
2022-08-17T07:22:57.238Z,59.94
2022-08-17T07:23:39.389Z,47.21
2022-08-17T07:24:39.451Z,51.88
2022-08-17T07:25:39.405Z,49.79
2022-08-17T07:26:39.373Z,54.79
2022-08-17T07:27:39.386Z,54.62
2022-08-17T07:28:39.732Z,50.76
2022-08-17T07:29:39.322Z,58.17
2022-08-17T07:30:46.854Z,54.95
2022-08-17T07:31:39.350Z,56.40
2022-08-17T07:32:39.335Z,49.47
2022-08-17T07:33:39.300Z,57.85
2022-08-17T07:34:39.279Z,53.17
2022-08-17T07:35:41.229Z,49.47
2022-08-17T07:36:39.254Z,58.01
2022-08-17T07:37:39.311Z,49.79
2022-08-17T07:38:39.246Z,48.34
2022-08-17T07:39:59.698Z,57.69
2022-08-17T07:40:39.255Z,47.53
2022-08-17T07:41:53.439Z,62.84
2022-08-17T07:42:44.519Z,57.85
2022-08-17T07:43:39.193Z,53.17
2022-08-17T07:44:39.167Z,60.75
2022-08-17T07:45:40.155Z,55.59
2022-08-17T07:46:39.144Z,56.40
2022-08-17T07:47:39.137Z,53.01
2022-08-17T07:48:39.137Z,55.43
2022-08-17T07:49:39.129Z,53.33
2022-08-17T07:50:39.086Z,62.20
2022-08-17T07:51:39.096Z,61.23
2022-08-17T07:52:51.854Z,66.55
2022-08-17T07:53:43.780Z,69.13
2022-08-17T07:54:39.052Z,57.20
2022-08-17T07:55:39.092Z,53.01
2022-08-17T07:56:39.081Z,53.01
2022-08-17T07:57:39.124Z,50.43
2022-08-17T07:58:39.036Z,51.08
2022-08-17T07:59:39.149Z,54.79
2022-08-17T08:00:38.975Z,56.24
2022-08-17T08:01:39.663Z,56.24
2022-08-17T08:02:38.959Z,55.43
2022-08-17T08:03:38.975Z,55.27
2022-08-17T08:05:49.953Z,62.04
2022-08-17T08:07:49.628Z,62.68
2022-08-17T08:09:42.139Z,56.56
2022-08-17T08:10:45.208Z,55.91
2022-08-17T08:11:44.379Z,55.91
2022-08-17T08:12:41.786Z,53.01
2022-08-17T08:13:42.072Z,52.85
2022-08-17T08:14:41.724Z,63.33
2022-08-17T08:15:45.217Z,58.01
2022-08-17T08:16:41.681Z,52.05
2022-08-17T08:17:41.701Z,58.01
2022-08-17T08:18:55.529Z,52.85
2022-08-17T08:19:41.651Z,58.49
2022-08-17T08:20:53.926Z,53.01
2022-08-17T08:21:41.628Z,57.36
2022-08-17T08:22:41.622Z,51.40
2022-08-17T08:23:41.604Z,52.05
2022-08-17T08:24:41.612Z,59.46
2022-08-17T08:25:41.621Z,56.07
2022-08-17T08:26:41.581Z,61.55
2022-08-17T08:27:41.563Z,59.78
2022-08-17T08:28:41.618Z,58.33
2022-08-17T08:29:41.618Z,57.36
2022-08-17T08:30:41.565Z,51.88
2022-08-17T08:31:42.474Z,58.33
2022-08-17T08:32:41.568Z,55.75
2022-08-17T08:33:41.502Z,66.55
2022-08-17T08:34:58.842Z,52.05
2022-08-17T08:35:41.492Z,64.78
2022-08-17T08:37:13.032Z,58.81
2022-08-17T08:37:43.237Z,51.08
2022-08-17T08:38:41.454Z,58.97
2022-08-17T08:39:41.503Z,58.97
2022-08-17T08:40:41.450Z,61.07
2022-08-17T08:41:43.289Z,55.27
2022-08-17T08:42:41.404Z,52.69
2022-08-17T08:43:41.414Z,68.00
2022-08-17T08:45:00.534Z,52.37
2022-08-17T08:45:41.478Z,56.07
2022-08-17T08:46:41.371Z,55.27
2022-08-17T08:48:56.014Z,53.33
2022-08-17T08:50:03.807Z,51.08
2022-08-17T08:50:52.782Z,54.14
2022-08-17T08:51:52.763Z,60.75
2022-08-17T08:52:52.744Z,63.33
2022-08-17T08:53:52.746Z,49.47
2022-08-17T08:54:52.707Z,55.91
2022-08-17T08:55:52.717Z,66.06
2022-08-17T08:57:21.513Z,53.17
2022-08-17T08:57:52.796Z,50.27
2022-08-17T08:58:52.678Z,54.95
2022-08-17T08:59:58.161Z,53.66
2022-08-17T09:00:52.643Z,54.79
2022-08-17T09:01:53.537Z,51.08
2022-08-17T09:03:52.858Z,71.06
2022-08-17T09:05:13.051Z,52.21
2022-08-17T09:05:46.814Z,52.69
2022-08-17T09:06:46.845Z,59.46
2022-08-17T09:07:46.871Z,61.07
2022-08-17T09:08:46.890Z,47.53
2022-08-17T09:10:37.081Z,65.10
2022-08-17T09:12:01.786Z,50.60
2022-08-17T09:12:38.076Z,62.84
2022-08-17T09:13:38.057Z,54.62
2022-08-17T09:14:45.354Z,53.82
2022-08-17T09:15:38.095Z,53.66
2022-08-17T09:16:38.007Z,64.29
2022-08-17T09:17:38.025Z,50.92
2022-08-17T09:18:59.956Z,58.17
2022-08-17T09:19:38.019Z,56.07
2022-08-17T09:20:38.022Z,59.94
2022-08-17T09:21:38.003Z,56.88
2022-08-17T09:22:37.963Z,54.30
2022-08-17T09:23:37.978Z,54.46
2022-08-17T09:24:37.966Z,60.75
2022-08-17T09:25:37.918Z,60.10
2022-08-17T09:26:37.930Z,60.10
2022-08-17T09:27:37.934Z,58.97
2022-08-17T09:28:37.917Z,53.17
2022-08-17T09:29:37.909Z,48.82
2022-08-17T09:30:37.887Z,57.36
2022-08-17T09:31:47.089Z,57.36
2022-08-17T09:32:38.221Z,54.79
2022-08-17T09:34:33.075Z,51.88
2022-08-17T09:35:36.508Z,54.79
2022-08-17T09:36:31.800Z,51.56
2022-08-17T09:37:31.739Z,49.15
2022-08-17T09:38:32.691Z,53.66
2022-08-17T09:39:31.755Z,53.01
2022-08-17T09:41:23.079Z,58.65
2022-08-17T09:42:24.028Z,48.34
2022-08-17T09:43:24.004Z,54.62
2022-08-17T09:44:24.082Z,50.92
2022-08-17T09:45:23.970Z,49.47
2022-08-17T09:46:23.946Z,60.26
2022-08-17T09:47:24.026Z,49.79
2022-08-17T09:48:24.098Z,50.27
2022-08-17T09:50:55.415Z,49.47
2022-08-17T09:53:06.083Z,54.79
2022-08-17T09:54:36.818Z,57.69
2022-08-17T09:58:11.497Z,57.85
2022-08-17T09:58:16.667Z,65.42
2022-08-17T09:59:16.699Z,50.43
2022-08-17T10:00:28.189Z,52.85
2022-08-17T10:01:16.783Z,56.40
2022-08-17T10:02:16.620Z,55.75
2022-08-17T10:03:16.645Z,54.95
2022-08-17T10:04:19.990Z,50.11
2022-08-17T10:05:16.688Z,55.11
2022-08-17T10:06:21.733Z,56.88
2022-08-17T10:07:16.588Z,51.56
2022-08-17T10:08:16.601Z,58.97
2022-08-17T10:09:16.605Z,52.69
2022-08-17T10:10:16.547Z,50.27
2022-08-17T10:11:16.542Z,54.30
2022-08-17T10:12:17.398Z,60.91
2022-08-17T10:13:16.562Z,56.56
2022-08-17T10:14:37.054Z,49.79
2022-08-17T10:15:17.434Z,50.76
2022-08-17T10:16:16.488Z,54.46
2022-08-17T10:17:16.544Z,60.10
2022-08-17T10:18:16.451Z,53.50
2022-08-17T10:19:16.510Z,51.72
2022-08-17T10:20:16.474Z,62.68
2022-08-17T10:21:16.456Z,55.59
2022-08-17T10:22:34.477Z,56.56
2022-08-17T10:23:16.425Z,61.39
2022-08-17T10:24:16.465Z,49.79
2022-08-17T10:25:22.066Z,48.34
2022-08-17T10:26:16.402Z,63.33
2022-08-17T10:27:16.398Z,53.50
2022-08-17T10:28:20.309Z,60.26
2022-08-17T10:29:16.408Z,49.31
2022-08-17T10:30:16.417Z,48.18
2022-08-17T10:31:34.230Z,49.47
2022-08-17T10:32:16.334Z,53.66
2022-08-17T10:33:16.336Z,55.43
2022-08-17T10:34:17.327Z,53.17
2022-08-17T10:35:20.694Z,51.08
2022-08-17T10:37:06.638Z,65.74
2022-08-17T10:38:07.703Z,48.50
2022-08-17T10:39:07.632Z,63.16
2022-08-17T10:40:07.681Z,61.39
2022-08-17T10:41:07.664Z,58.01
2022-08-17T10:42:07.915Z,70.90
2022-08-17T10:43:07.609Z,64.94
2022-08-17T10:44:38.903Z,55.59
2022-08-17T10:45:07.613Z,62.20
2022-08-17T10:46:26.463Z,64.61
2022-08-17T10:47:07.564Z,64.94
2022-08-17T10:48:07.772Z,64.29
2022-08-17T10:49:07.544Z,60.42
2022-08-17T10:50:08.274Z,58.01
2022-08-17T10:51:07.685Z,67.19
2022-08-17T10:52:07.491Z,60.42
2022-08-17T10:53:07.477Z,49.47
2022-08-17T10:54:07.445Z,56.40
2022-08-17T10:55:07.479Z,56.24
2022-08-17T10:56:07.766Z,56.07
2022-08-17T10:57:07.426Z,54.95
2022-08-17T10:58:07.418Z,53.50
2022-08-17T10:59:07.419Z,52.05
2022-08-17T11:00:07.462Z,49.63
2022-08-17T11:01:07.600Z,63.97
2022-08-17T11:02:07.388Z,57.04
2022-08-17T11:03:07.370Z,50.43
2022-08-17T11:04:07.438Z,52.05
2022-08-17T11:05:07.349Z,60.59
2022-08-17T11:06:07.373Z,47.86
2022-08-17T11:07:07.376Z,59.30
2022-08-17T11:08:07.330Z,48.82
2022-08-17T11:09:07.334Z,56.40
2022-08-17T11:10:07.318Z,57.36
2022-08-17T11:11:07.296Z,59.46
2022-08-17T11:12:07.299Z,50.43
2022-08-17T11:13:07.290Z,54.95
2022-08-17T11:14:07.283Z,50.76
2022-08-17T11:15:07.278Z,52.69
2022-08-17T11:16:08.548Z,52.85
2022-08-17T11:17:07.229Z,56.56
2022-08-17T11:18:07.203Z,52.85
2022-08-17T11:19:07.203Z,47.37
2022-08-17T11:20:07.200Z,52.21
2022-08-17T11:21:07.246Z,51.56
2022-08-17T11:22:07.310Z,44.96
2022-08-17T11:23:07.291Z,53.50
2022-08-17T11:24:07.219Z,50.76
2022-08-17T11:25:07.179Z,52.53
2022-08-17T11:26:07.615Z,47.86
2022-08-17T11:27:07.155Z,51.72
2022-08-17T11:28:07.212Z,51.72
2022-08-17T11:29:07.419Z,54.62
2022-08-17T11:30:08.425Z,56.72
2022-08-17T11:31:07.532Z,46.41
2022-08-17T11:32:33.709Z,52.69
2022-08-17T11:33:07.299Z,54.30
2022-08-17T11:34:07.082Z,58.33
2022-08-17T11:35:07.067Z,49.47
2022-08-17T11:37:24.385Z,47.70
2022-08-17T11:38:25.389Z,52.05
2022-08-17T11:40:41.210Z,56.40
2022-08-17T11:41:41.700Z,53.66
2022-08-17T11:42:41.752Z,54.95
2022-08-17T11:43:42.913Z,51.72
2022-08-17T11:45:52.445Z,60.42
2022-08-17T11:47:07.042Z,48.98
2022-08-17T11:48:23.791Z,57.69
2022-08-17T11:48:53.370Z,49.15
2022-08-17T11:49:53.410Z,50.76
2022-08-17T11:50:53.368Z,55.11
2022-08-17T11:51:53.490Z,56.72
2022-08-17T11:52:53.565Z,54.62
2022-08-17T11:55:31.745Z,56.40
2022-08-17T11:56:05.755Z,53.66
2022-08-17T11:57:05.714Z,50.27
2022-08-17T11:58:05.750Z,58.01
2022-08-17T11:59:05.687Z,57.36
2022-08-17T12:00:05.697Z,52.69
2022-08-17T12:01:06.003Z,45.76
2022-08-17T12:02:05.672Z,55.91
2022-08-17T12:03:05.683Z,50.60
2022-08-17T12:04:05.700Z,48.18
2022-08-17T12:05:11.836Z,51.08
2022-08-17T12:06:05.633Z,57.20
2022-08-17T12:07:05.609Z,49.15
2022-08-17T12:08:05.870Z,49.47
2022-08-17T12:09:05.617Z,48.02
2022-08-17T12:10:05.614Z,53.17
2022-08-17T12:11:05.609Z,52.37
2022-08-17T12:12:12.763Z,53.01
2022-08-17T12:13:05.567Z,54.46
2022-08-17T12:14:05.581Z,54.62
2022-08-17T12:15:10.590Z,53.33
2022-08-17T12:16:05.594Z,56.24
2022-08-17T12:17:05.501Z,58.01
2022-08-17T12:18:05.509Z,55.91
2022-08-17T12:19:05.579Z,53.98
2022-08-17T12:20:05.556Z,56.56
2022-08-17T12:21:05.496Z,61.23
2022-08-17T12:22:05.531Z,54.95
2022-08-17T12:23:05.465Z,49.95
2022-08-17T12:24:05.456Z,46.08
2022-08-17T12:25:34.068Z,55.27
2022-08-17T12:26:06.179Z,55.43
2022-08-17T12:28:29.803Z,60.10
2022-08-17T12:32:23.150Z,49.15
2022-08-17T12:36:05.470Z,60.42
2022-08-17T12:37:06.433Z,47.05
2022-08-17T12:38:06.467Z,47.86
2022-08-17T12:39:14.095Z,63.49
2022-08-17T12:40:06.494Z,51.88
2022-08-17T12:41:06.389Z,61.87
2022-08-17T12:42:07.265Z,58.17
2022-08-17T12:43:06.370Z,54.62
2022-08-17T12:44:06.384Z,51.24
2022-08-17T12:45:06.350Z,50.11
2022-08-17T12:46:13.430Z,56.07
2022-08-17T12:47:06.325Z,53.82
2022-08-17T12:48:06.303Z,52.21
2022-08-17T12:49:06.323Z,53.66
2022-08-17T12:50:06.291Z,56.40
2022-08-17T12:52:18.108Z,48.02
2022-08-17T12:54:12.356Z,56.24
2022-08-17T12:55:13.177Z,55.91
2022-08-17T12:57:13.138Z,54.46
2022-08-17T12:59:07.814Z,50.76
2022-08-17T13:00:08.707Z,72.19
2022-08-17T13:01:08.753Z,55.75
2022-08-17T13:02:08.798Z,53.82
2022-08-17T13:03:08.703Z,55.43
2022-08-17T13:04:08.733Z,53.17
2022-08-17T13:05:08.693Z,49.31
2022-08-17T13:06:08.680Z,58.65
2022-08-17T13:07:08.766Z,48.66
2022-08-17T13:08:08.681Z,56.40
2022-08-17T13:09:08.745Z,54.14
2022-08-17T13:10:08.624Z,52.37
2022-08-17T13:11:12.171Z,53.33
2022-08-17T13:12:27.850Z,69.93
2022-08-17T13:13:25.401Z,51.88
2022-08-17T13:14:32.533Z,44.15
2022-08-17T13:15:08.576Z,55.43
2022-08-17T13:18:07.699Z,46.73
2022-08-17T13:19:08.654Z,44.96
2022-08-17T13:20:08.644Z,48.98
2022-08-17T13:21:08.623Z,55.27
2022-08-17T13:22:08.626Z,50.76
2022-08-17T13:23:12.369Z,53.50
2022-08-17T13:24:08.671Z,52.21
2022-08-17T13:25:08.661Z,51.08
2022-08-17T13:26:08.664Z,48.98
2022-08-17T13:27:08.833Z,57.36
2022-08-17T13:28:08.600Z,55.75
2022-08-17T13:29:40.457Z,47.37
2022-08-17T13:30:52.832Z,50.92
2022-08-17T13:31:10.253Z,58.01
2022-08-17T13:32:29.571Z,51.88
2022-08-17T13:33:08.537Z,53.82
2022-08-17T13:34:12.137Z,50.60
2022-08-17T13:35:14.219Z,49.47
2022-08-17T13:36:20.067Z,48.98
2022-08-17T13:39:33.100Z,53.66
2022-08-17T13:40:39.890Z,57.36
2022-08-17T13:41:33.183Z,42.06
2022-08-17T13:42:33.356Z,48.98
2022-08-17T13:43:33.149Z,50.92
2022-08-17T13:44:33.268Z,43.83
2022-08-17T13:45:36.269Z,50.60
2022-08-17T13:46:34.733Z,47.05
2022-08-17T13:48:46.455Z,53.50